High gust

Not for real navigation. The accuracy of this data is not assured See disclaimer for more information



ICAO NAME COUNTRY WIND Kt GUST Kt VIS m TEMP/DEW C BARO METAR
YLHI 28 42 4000 12/11 30.03 YLHI 281225Z AUTO 24028G42KT 4000 // SCT041 SCT063 SCT097 12/11 Q1017
KMWN Mount Washington NH United States 33 42 9999 7/7 29.92 KMWN 281151Z 30033G42KT 0SM FG VV000 07/07 RMK 60008 70036 10094 20068
EKSP Skrydstrup Denmark 12 41 9999 16/13 29.71 EKSP 281228Z 25012G41KT 150V300 9999 -SHRA BKN025CB SCT030 16/13 Q1006
OAHR Herat Afghanistan 27 38 9999 37/12 29.74 OAHR 281155Z 01027G38KT 9999 FEW090 37/12 Q1007 RMK BLU
CYAS Kangirsuk Supplementary Aviati Canada 29 36 16000 7/6 29.61 CYAS 281200Z 02029G36KT 10SM -RA BKN006 OVC025 07/06 A2961 RMK ST5SC3 SLP035

Show more